createdAt,value
2022-09-11T00:01:53.550Z,26.23
2022-09-11T00:04:21.226Z,27.95
2022-09-11T00:06:49.805Z,32.00
2022-09-11T00:09:18.818Z,27.48
2022-09-11T00:11:49.862Z,28.33
2022-09-11T00:14:17.472Z,30.63
2022-09-11T00:16:47.338Z,29.00
2022-09-11T00:19:17.441Z,29.02
2022-09-11T00:21:45.341Z,29.58
2022-09-11T00:24:13.162Z,29.37
2022-09-11T00:26:42.407Z,28.45
2022-09-11T00:29:10.216Z,29.77
2022-09-11T00:31:38.438Z,27.98
2022-09-11T00:34:06.844Z,30.75
2022-09-11T00:36:35.804Z,31.20
2022-09-11T00:39:03.701Z,29.20
2022-09-11T00:41:33.468Z,29.33
2022-09-11T00:44:04.839Z,29.52
2022-09-11T00:46:41.516Z,32.58
2022-09-11T00:49:17.770Z,33.42
2022-09-11T00:51:47.676Z,30.10
2022-09-11T00:54:16.475Z,31.02
2022-09-11T00:56:44.421Z,30.10
2022-09-11T00:59:13.978Z,31.60
2022-09-11T01:01:41.983Z,31.58
2022-09-11T01:04:10.382Z,28.23
2022-09-11T01:06:38.185Z,28.33
2022-09-11T01:09:05.826Z,27.58
2022-09-11T01:11:43.169Z,28.00
2022-09-11T01:14:21.389Z,29.33
2022-09-11T01:16:54.558Z,28.23
2022-09-11T01:19:32.567Z,30.30
2022-09-11T01:22:11.165Z,28.80
2022-09-11T01:24:50.470Z,30.55
2022-09-11T01:27:31.951Z,31.98
2022-09-11T01:30:03.044Z,32.15
2022-09-11T01:32:36.784Z,30.48
2022-09-11T01:35:08.466Z,30.13
2022-09-11T01:37:39.789Z,27.52
2022-09-11T01:40:11.616Z,26.95
2022-09-11T01:42:43.283Z,28.33
2022-09-11T01:45:12.663Z,31.52
2022-09-11T01:47:42.189Z,31.42
2022-09-11T01:50:11.414Z,29.60
2022-09-11T01:52:44.925Z,27.90
2022-09-11T01:55:14.512Z,31.30
2022-09-11T01:57:46.403Z,30.85
2022-09-11T02:00:15.018Z,32.22
2022-09-11T02:02:45.899Z,33.55
2022-09-11T02:05:18.087Z,32.08
2022-09-11T02:07:48.285Z,37.97
2022-09-11T02:10:18.223Z,46.00
2022-09-11T02:12:50.664Z,47.50
2022-09-11T02:15:18.940Z,81.35
2022-09-11T02:17:52.284Z,54.28
2022-09-11T02:20:21.517Z,48.30
2022-09-11T02:22:49.458Z,82.23
2022-09-11T02:25:17.566Z,119.90
2022-09-11T02:27:45.234Z,70.82
2022-09-11T02:30:15.504Z,66.27
2022-09-11T02:32:45.370Z,61.77
2022-09-11T02:35:13.283Z,88.40
2022-09-11T02:37:50.207Z,52.25
2022-09-11T02:40:32.933Z,106.10
2022-09-11T02:43:25.821Z,52.50
2022-09-11T02:46:16.133Z,33.20
2022-09-11T02:48:49.568Z,85.20
2022-09-11T02:51:22.902Z,35.33
2022-09-11T02:53:55.407Z,73.45
2022-09-11T02:56:30.514Z,92.20
2022-09-11T02:59:00.889Z,119.95
2022-09-11T03:01:30.027Z,298.52
2022-09-11T03:03:57.706Z,148.27
2022-09-11T03:06:27.349Z,199.13
2022-09-11T03:08:55.614Z,138.88
2022-09-11T03:11:23.318Z,146.95
2022-09-11T03:13:50.903Z,271.75
2022-09-11T03:16:19.140Z,166.60
2022-09-11T03:18:48.278Z,124.90
2022-09-11T03:21:16.957Z,239.00
2022-09-11T03:23:44.693Z,158.55
2022-09-11T03:26:12.379Z,94.97
2022-09-11T03:28:40.463Z,175.73
2022-09-11T03:31:09.771Z,111.57
2022-09-11T03:33:37.470Z,137.18
2022-09-11T03:36:06.959Z,189.70
2022-09-11T03:38:34.583Z,138.50
2022-09-11T03:41:03.320Z,138.90
2022-09-11T03:43:31.434Z,142.88
2022-09-11T03:46:00.575Z,137.85
2022-09-11T03:48:29.149Z,118.57
2022-09-11T03:50:56.805Z,117.47
2022-09-11T03:53:26.672Z,144.02
2022-09-11T03:55:54.823Z,86.07
2022-09-11T03:58:22.504Z,73.07
2022-09-11T04:00:50.155Z,66.63
2022-09-11T04:03:18.257Z,70.03
2022-09-11T04:05:57.649Z,135.20
2022-09-11T04:08:26.893Z,102.90
2022-09-11T04:10:58.394Z,195.50
2022-09-11T04:13:29.736Z,114.60
2022-09-11T04:16:01.004Z,112.80
2022-09-11T04:18:28.704Z,101.90
2022-09-11T04:20:56.328Z,145.05
2022-09-11T04:23:24.092Z,91.13
2022-09-11T04:25:53.302Z,144.57
2022-09-11T04:28:21.421Z,72.38
2022-09-11T04:30:49.066Z,88.32
2022-09-11T04:33:16.649Z,124.65
2022-09-11T04:35:44.626Z,64.53
2022-09-11T04:38:12.321Z,63.07
2022-09-11T04:40:39.926Z,72.30
2022-09-11T04:43:11.348Z,75.97
2022-09-11T04:45:40.501Z,63.00
2022-09-11T04:48:08.280Z,108.30
2022-09-11T04:50:35.933Z,70.25
2022-09-11T04:53:03.603Z,92.78
2022-09-11T04:55:31.218Z,55.38
2022-09-11T04:57:58.838Z,68.88
2022-09-11T05:00:28.192Z,47.77
2022-09-11T05:02:55.909Z,70.15
2022-09-11T05:05:23.539Z,72.30
2022-09-11T05:07:51.432Z,39.13
2022-09-11T05:10:20.291Z,37.22
2022-09-11T05:12:47.883Z,31.20
2022-09-11T05:15:15.751Z,48.08
2022-09-11T05:17:44.711Z,39.83
2022-09-11T05:20:12.428Z,27.15
2022-09-11T05:22:40.081Z,21.88
2022-09-11T05:25:08.959Z,31.33
2022-09-11T05:27:36.593Z,41.20
2022-09-11T05:30:04.628Z,40.75
2022-09-11T05:32:32.286Z,33.67
2022-09-11T05:35:01.284Z,55.70
2022-09-11T05:37:28.968Z,38.45
2022-09-11T05:39:56.939Z,48.28
2022-09-11T05:42:24.722Z,81.57
2022-09-11T05:44:52.384Z,90.70
2022-09-11T05:47:19.945Z,159.95
2022-09-11T05:49:47.528Z,60.17
2022-09-11T05:52:16.528Z,62.40
2022-09-11T05:54:44.147Z,212.55
2022-09-11T05:57:11.753Z,157.10
2022-09-11T05:59:39.369Z,221.48
2022-09-11T06:02:07.013Z,159.85
2022-09-11T06:04:42.371Z,226.00
2022-09-11T06:07:10.023Z,183.00
2022-09-11T06:09:39.047Z,49.08
2022-09-11T06:12:07.065Z,155.52
2022-09-11T06:14:34.658Z,72.93
2022-09-11T06:17:02.249Z,54.08
2022-09-11T06:19:29.915Z,116.90
2022-09-11T06:21:57.514Z,27.52
2022-09-11T06:24:25.154Z,63.03
2022-09-11T06:26:54.093Z,66.80
2022-09-11T06:29:21.675Z,85.40
2022-09-11T06:31:51.336Z,49.93
2022-09-11T06:34:19.948Z,64.75
2022-09-11T06:36:51.773Z,34.15
2022-09-11T06:39:22.813Z,46.63
2022-09-11T06:41:50.553Z,38.42
2022-09-11T06:44:19.513Z,49.25
2022-09-11T06:46:47.770Z,51.05
2022-09-11T06:49:16.189Z,89.70
2022-09-11T06:51:43.851Z,50.45
2022-09-11T06:54:11.719Z,64.00
2022-09-11T06:56:39.491Z,68.80
2022-09-11T06:59:07.203Z,85.03
2022-09-11T07:01:36.338Z,122.18
2022-09-11T07:04:04.149Z,124.90
2022-09-11T07:06:32.058Z,83.20
2022-09-11T07:09:02.479Z,63.35
2022-09-11T07:11:32.255Z,71.17
2022-09-11T07:13:59.999Z,55.65
2022-09-11T07:16:27.674Z,79.13
2022-09-11T07:18:58.156Z,81.40
2022-09-11T07:21:28.069Z,43.95
2022-09-11T07:23:57.498Z,43.60
2022-09-11T07:26:27.952Z,92.68
2022-09-11T07:28:57.558Z,42.20
2022-09-11T07:31:29.081Z,35.33
2022-09-11T07:33:58.298Z,49.17
2022-09-11T07:36:27.586Z,32.38
2022-09-11T07:38:55.966Z,29.17
2022-09-11T07:41:24.913Z,47.35
2022-09-11T07:43:53.760Z,50.10
2022-09-11T07:46:21.426Z,36.83
2022-09-11T07:48:49.176Z,43.00
2022-09-11T07:51:19.755Z,34.75
2022-09-11T07:53:48.850Z,31.75
2022-09-11T07:56:18.338Z,30.00
2022-09-11T07:58:46.356Z,30.55
2022-09-11T08:01:15.767Z,31.73
2022-09-11T08:03:44.276Z,38.97
2022-09-11T08:06:14.785Z,33.97
2022-09-11T08:08:45.517Z,36.97
2022-09-11T08:11:14.730Z,37.70
2022-09-11T08:13:42.881Z,34.37
2022-09-11T08:16:10.783Z,31.23
2022-09-11T08:18:38.413Z,30.40
2022-09-11T08:21:12.569Z,32.43
2022-09-11T08:23:41.901Z,28.80
2022-09-11T08:26:13.387Z,31.52
2022-09-11T08:28:42.900Z,27.80
2022-09-11T08:31:11.100Z,27.52
2022-09-11T08:33:39.513Z,28.90
2022-09-11T08:36:09.668Z,28.98
2022-09-11T08:38:37.609Z,29.08
2022-09-11T08:41:13.522Z,26.48
2022-09-11T08:43:47.033Z,27.42
2022-09-11T08:46:14.769Z,29.10
2022-09-11T08:48:49.108Z,29.35
2022-09-11T08:51:18.657Z,27.70
2022-09-11T08:53:46.454Z,26.90
2022-09-11T08:56:18.962Z,27.52
2022-09-11T08:58:56.131Z,28.27
2022-09-11T09:01:27.584Z,25.42
2022-09-11T09:04:10.560Z,27.50
2022-09-11T09:06:50.075Z,27.33
2022-09-11T09:09:25.723Z,27.00
2022-09-11T09:11:57.515Z,25.97
2022-09-11T09:14:35.267Z,24.95
2022-09-11T09:17:05.688Z,23.87
2022-09-11T09:19:36.067Z,24.40
2022-09-11T09:22:09.043Z,24.65
2022-09-11T09:24:42.690Z,23.17
2022-09-11T09:27:21.437Z,23.45
2022-09-11T09:29:52.270Z,23.20
2022-09-11T09:32:25.130Z,21.67
2022-09-11T09:34:53.932Z,21.97
2022-09-11T09:37:23.450Z,20.95
2022-09-11T09:39:52.266Z,21.25
2022-09-11T09:42:39.280Z,20.50
2022-09-11T09:45:23.505Z,20.67
2022-09-11T09:47:51.261Z,19.60
2022-09-11T09:50:21.674Z,19.75
2022-09-11T09:52:50.434Z,19.00
2022-09-11T09:55:20.467Z,15.83
2022-09-11T09:57:50.332Z,14.10
2022-09-11T10:00:20.063Z,14.30
2022-09-11T10:02:53.642Z,12.82
2022-09-11T10:05:26.461Z,13.77
2022-09-11T10:07:56.768Z,12.10
2022-09-11T10:10:31.204Z,8.95
2022-09-11T10:13:18.009Z,10.75
2022-09-11T10:15:49.765Z,8.45
2022-09-11T10:18:25.474Z,8.95
2022-09-11T10:20:54.701Z,8.27
2022-09-11T10:23:24.549Z,10.30
2022-09-11T10:25:52.366Z,9.50
2022-09-11T10:28:26.638Z,9.67
2022-09-11T10:30:59.354Z,8.30
2022-09-11T10:33:29.752Z,7.95
2022-09-11T10:35:58.708Z,8.35
2022-09-11T10:38:31.439Z,10.65
2022-09-11T10:41:04.390Z,8.23
2022-09-11T10:43:39.455Z,8.48
2022-09-11T10:46:23.178Z,8.47
2022-09-11T10:48:56.150Z,8.55
2022-09-11T10:51:25.139Z,7.80
2022-09-11T10:54:09.973Z,7.93
2022-09-11T10:56:50.605Z,7.38
2022-09-11T10:59:23.371Z,7.57
2022-09-11T11:01:51.355Z,6.80
2022-09-11T11:04:19.085Z,6.10
2022-09-11T11:06:56.198Z,6.03
2022-09-11T11:09:34.649Z,5.88
2022-09-11T11:12:17.242Z,5.90
2022-09-11T11:14:58.669Z,5.85
2022-09-11T11:17:32.514Z,5.22
2022-09-11T11:20:09.979Z,6.70
2022-09-11T11:22:56.125Z,5.60
2022-09-11T11:25:28.740Z,4.80
2022-09-11T11:28:11.701Z,5.90
2022-09-11T11:30:45.828Z,5.20
2022-09-11T11:33:57.991Z,4.90
2022-09-11T11:36:28.846Z,5.53
2022-09-11T11:39:02.133Z,4.82
2022-09-11T11:41:31.755Z,4.25
2022-09-11T11:44:03.420Z,5.47
2022-09-11T11:46:33.496Z,4.53
2022-09-11T11:49:05.758Z,4.07
2022-09-11T11:51:36.214Z,4.20
2022-09-11T11:54:06.674Z,5.47
2022-09-11T11:56:40.789Z,3.78
2022-09-11T11:59:13.541Z,4.72
2022-09-11T12:01:44.037Z,4.75
2022-09-11T12:04:24.198Z,5.63
2022-09-11T12:06:51.942Z,4.72
2022-09-11T12:09:19.967Z,5.03
2022-09-11T12:11:49.679Z,5.35
2022-09-11T12:14:27.512Z,4.93
2022-09-11T12:16:56.535Z,5.30
2022-09-11T12:19:26.244Z,5.50
2022-09-11T12:22:14.678Z,4.88
2022-09-11T12:24:58.639Z,4.32
2022-09-11T12:27:53.152Z,4.63
2022-09-11T12:30:28.583Z,4.93
2022-09-11T12:32:57.226Z,4.57
2022-09-11T12:35:30.743Z,4.85
2022-09-11T12:38:02.670Z,4.68
2022-09-11T12:40:35.818Z,5.40
2022-09-11T12:43:31.096Z,4.27
2022-09-11T12:48:38.657Z,3.05
2022-09-11T12:51:07.329Z,3.07
2022-09-11T12:53:37.627Z,2.60
2022-09-11T12:56:07.117Z,1.73
2022-09-11T12:58:37.484Z,3.45
2022-09-11T13:01:15.740Z,2.90
2022-09-11T13:03:51.571Z,2.40
2022-09-11T13:06:19.482Z,2.33
2022-09-11T13:08:50.338Z,2.28
2022-09-11T13:11:42.152Z,1.70
2022-09-11T13:14:45.684Z,1.33
2022-09-11T13:17:16.344Z,1.77
2022-09-11T13:19:45.389Z,2.65
2022-09-11T13:22:22.542Z,2.47
2022-09-11T13:24:50.459Z,2.42
2022-09-11T13:27:23.897Z,2.40
2022-09-11T13:29:52.050Z,2.13
2022-09-11T13:32:20.041Z,2.67
2022-09-11T13:34:50.991Z,2.80
2022-09-11T13:37:31.122Z,3.28
2022-09-11T13:39:59.648Z,2.77
2022-09-11T13:42:28.380Z,2.33
2022-09-11T13:44:57.039Z,2.60
2022-09-11T13:47:25.960Z,2.20
2022-09-11T13:49:57.958Z,2.53
2022-09-11T13:52:27.538Z,2.30
2022-09-11T13:54:56.283Z,1.55
2022-09-11T13:57:24.911Z,2.57
2022-09-11T13:59:54.214Z,0.77
2022-09-11T14:02:32.138Z,1.73
2022-09-11T14:05:13.794Z,1.73
2022-09-11T14:07:56.498Z,1.67
2022-09-11T14:10:32.908Z,1.35
2022-09-11T14:13:14.095Z,1.40
2022-09-11T14:15:43.851Z,2.00
2022-09-11T14:18:17.501Z,2.13
2022-09-11T14:20:47.151Z,1.60
2022-09-11T14:23:20.262Z,1.33
2022-09-11T14:26:07.593Z,1.50
2022-09-11T14:28:37.346Z,4.35
2022-09-11T14:31:09.429Z,1.80
2022-09-11T14:33:37.108Z,1.83
2022-09-11T14:36:10.770Z,2.25
2022-09-11T14:38:39.117Z,2.57
2022-09-11T14:41:08.055Z,5.00
2022-09-11T14:43:36.510Z,2.50
2022-09-11T14:46:04.508Z,1.83
2022-09-11T14:48:34.587Z,2.47
2022-09-11T14:51:09.898Z,2.60
2022-09-11T14:53:43.365Z,1.80
2022-09-11T14:56:11.261Z,2.28
2022-09-11T14:58:38.986Z,2.63
2022-09-11T15:01:06.980Z,1.88
2022-09-11T15:03:34.940Z,2.20
2022-09-11T15:06:02.645Z,2.72
2022-09-11T15:08:30.278Z,1.25
2022-09-11T15:10:59.471Z,3.05
2022-09-11T15:13:27.236Z,2.00
2022-09-11T15:15:56.118Z,2.15
2022-09-11T15:18:23.840Z,1.60
2022-09-11T15:20:51.452Z,1.92
2022-09-11T15:23:19.033Z,1.52
2022-09-11T15:25:46.778Z,1.88
2022-09-11T15:28:15.916Z,2.42
2022-09-11T15:30:43.655Z,0.80
2022-09-11T15:33:11.371Z,1.50
2022-09-11T15:35:39.012Z,1.60
2022-09-11T15:38:06.432Z,2.20
2022-09-11T15:40:36.216Z,1.88
2022-09-11T15:43:03.942Z,2.85
2022-09-11T15:45:33.085Z,2.43
2022-09-11T15:48:00.893Z,3.42
2022-09-11T15:50:30.153Z,3.35
2022-09-11T15:52:57.806Z,2.80
2022-09-11T15:55:26.621Z,3.42
2022-09-11T15:57:54.246Z,3.45
2022-09-11T16:00:22.008Z,3.85
2022-09-11T16:02:53.515Z,4.55
2022-09-11T16:05:23.011Z,3.47
2022-09-11T16:07:50.661Z,3.77
2022-09-11T16:10:18.595Z,10.70
2022-09-11T16:12:47.031Z,4.80
2022-09-11T16:15:14.726Z,3.70
2022-09-11T16:17:42.381Z,4.00
2022-09-11T16:20:12.751Z,4.35
2022-09-11T16:22:44.621Z,5.35
2022-09-11T16:25:12.331Z,4.95
2022-09-11T16:27:40.157Z,5.32
2022-09-11T16:30:39.313Z,5.10
2022-09-11T16:32:57.613Z,5.95
2022-09-11T16:35:27.304Z,5.60
2022-09-11T16:37:54.936Z,5.85
2022-09-11T16:40:22.807Z,5.50
2022-09-11T16:42:50.495Z,7.93
2022-09-11T16:45:19.600Z,5.20
2022-09-11T16:47:47.290Z,6.50
2022-09-11T16:50:14.909Z,5.30
2022-09-11T16:52:43.961Z,6.05
2022-09-11T16:55:11.711Z,9.85
2022-09-11T16:57:39.715Z,6.07
2022-09-11T17:00:09.154Z,5.82
2022-09-11T17:02:37.363Z,5.78
2022-09-11T17:05:05.903Z,5.38
2022-09-11T17:07:33.528Z,5.95
2022-09-11T17:10:02.607Z,5.93
2022-09-11T17:12:30.202Z,5.32
2022-09-11T17:14:58.029Z,5.43
2022-09-11T17:17:25.760Z,4.95
2022-09-11T17:19:54.040Z,5.95
2022-09-11T17:22:21.788Z,6.75
2022-09-11T17:24:49.425Z,6.55
2022-09-11T17:27:18.444Z,6.55
2022-09-11T17:29:47.247Z,6.47
2022-09-11T17:32:27.718Z,5.60
2022-09-11T17:34:56.845Z,5.78
2022-09-11T17:37:25.847Z,5.18
2022-09-11T17:39:53.659Z,6.55
2022-09-11T17:42:23.033Z,7.28
2022-09-11T17:44:50.946Z,6.25
2022-09-11T17:47:19.510Z,6.32
2022-09-11T17:49:47.223Z,6.80
2022-09-11T17:52:15.536Z,6.90
2022-09-11T17:54:43.394Z,6.53
2022-09-11T17:57:11.914Z,7.60
2022-09-11T17:59:42.750Z,9.10
2022-09-11T18:02:11.688Z,8.30
2022-09-11T18:04:39.507Z,9.00
2022-09-11T18:07:07.367Z,8.90
2022-09-11T18:09:34.973Z,9.98
2022-09-11T18:12:04.064Z,10.80
2022-09-11T18:14:31.876Z,10.00
2022-09-11T18:17:00.985Z,9.82
2022-09-11T18:19:29.189Z,9.98
2022-09-11T18:21:57.342Z,10.57
2022-09-11T18:24:29.827Z,13.38
2022-09-11T18:27:00.927Z,11.48
2022-09-11T18:29:30.387Z,12.23
2022-09-11T18:31:59.911Z,11.63
2022-09-11T18:34:31.129Z,11.32
2022-09-11T18:36:59.921Z,11.43
2022-09-11T18:39:28.323Z,11.43
2022-09-11T18:41:56.044Z,11.68
2022-09-11T18:44:25.297Z,14.18
2022-09-11T18:46:54.432Z,11.18
2022-09-11T18:49:22.721Z,11.10
2022-09-11T18:51:51.860Z,11.60
2022-09-11T18:54:20.892Z,11.48
2022-09-11T18:56:49.711Z,11.30
2022-09-11T18:59:17.561Z,11.52
2022-09-11T19:01:45.467Z,11.98
2022-09-11T19:04:14.639Z,11.30
2022-09-11T19:06:42.594Z,12.40
2022-09-11T19:09:12.871Z,11.82
2022-09-11T19:11:41.080Z,11.60
2022-09-11T19:14:10.476Z,12.10
2022-09-11T19:16:39.439Z,12.35
2022-09-11T19:19:08.112Z,12.40
2022-09-11T19:21:37.891Z,12.82
2022-09-11T19:24:06.690Z,12.30
2022-09-11T19:26:37.523Z,12.30
2022-09-11T19:29:05.236Z,12.70
2022-09-11T19:31:33.788Z,11.43
2022-09-11T19:34:02.052Z,11.88
2022-09-11T19:36:31.111Z,12.05
2022-09-11T19:39:00.613Z,12.43
2022-09-11T19:41:31.246Z,11.73
2022-09-11T19:44:01.525Z,11.20
2022-09-11T19:46:30.420Z,12.07
2022-09-11T19:49:00.793Z,12.43
2022-09-11T19:51:29.917Z,12.32
2022-09-11T19:54:00.291Z,12.25
2022-09-11T19:56:28.607Z,13.32
2022-09-11T19:58:56.376Z,13.30
2022-09-11T20:01:26.258Z,12.70
2022-09-11T20:03:55.109Z,13.00
2022-09-11T20:06:24.840Z,12.93
2022-09-11T20:09:07.958Z,12.93
2022-09-11T20:11:41.360Z,14.23
2022-09-11T20:14:09.670Z,13.75
2022-09-11T20:16:38.721Z,13.43
2022-09-11T20:19:06.684Z,13.82
2022-09-11T20:21:36.023Z,13.85
2022-09-11T20:24:06.206Z,13.98
2022-09-11T20:26:34.280Z,13.48
2022-09-11T20:29:03.633Z,13.85
2022-09-11T20:31:32.624Z,13.23
2022-09-11T20:34:02.485Z,13.40
2022-09-11T20:36:31.143Z,14.00
2022-09-11T20:39:00.643Z,13.88
2022-09-11T20:41:30.575Z,13.52
2022-09-11T20:44:00.536Z,13.02
2022-09-11T20:46:28.400Z,13.18
2022-09-11T20:48:56.147Z,12.88
2022-09-11T20:51:25.266Z,12.63
2022-09-11T20:53:53.028Z,12.85
2022-09-11T20:56:22.609Z,13.27
2022-09-11T20:58:50.575Z,12.20
2022-09-11T21:01:21.140Z,12.20
2022-09-11T21:03:50.122Z,12.10
2022-09-11T21:06:22.061Z,11.70
2022-09-11T21:08:55.375Z,12.05
2022-09-11T21:11:23.315Z,12.05
2022-09-11T21:13:50.969Z,12.80
2022-09-11T21:16:19.733Z,13.13
2022-09-11T21:18:49.099Z,14.13
2022-09-11T21:21:17.068Z,13.20
2022-09-11T21:23:44.817Z,12.60
2022-09-11T21:26:16.602Z,12.77
2022-09-11T21:28:44.422Z,13.07
2022-09-11T21:31:12.536Z,12.80
2022-09-11T21:33:40.505Z,13.73
2022-09-11T21:36:08.534Z,13.00
2022-09-11T21:38:37.651Z,12.27
2022-09-11T21:41:06.913Z,12.47
2022-09-11T21:43:36.158Z,12.50
2022-09-11T21:46:04.103Z,11.87
2022-09-11T21:48:35.771Z,12.70
2022-09-11T21:51:07.954Z,14.30
2022-09-11T21:53:35.651Z,12.70
2022-09-11T21:56:03.716Z,11.90
2022-09-11T21:58:31.356Z,12.23
2022-09-11T22:01:05.888Z,11.77
2022-09-11T22:03:33.703Z,11.13
2022-09-11T22:06:05.487Z,11.18
2022-09-11T22:08:33.282Z,11.18
2022-09-11T22:11:02.948Z,11.70
2022-09-11T22:13:30.832Z,11.05
2022-09-11T22:16:00.217Z,11.55
2022-09-11T22:18:29.295Z,11.18
2022-09-11T22:21:00.375Z,10.77
2022-09-11T22:23:29.906Z,11.23
2022-09-11T22:26:01.412Z,11.15
2022-09-11T22:28:29.528Z,11.30
2022-09-11T22:30:57.395Z,10.20
2022-09-11T22:33:25.656Z,10.15
2022-09-11T22:35:54.744Z,10.00
2022-09-11T22:38:22.382Z,10.38
2022-09-11T22:40:53.976Z,11.55
2022-09-11T22:43:21.958Z,11.02
2022-09-11T22:45:52.821Z,10.70
2022-09-11T22:48:20.844Z,10.50
2022-09-11T22:50:48.722Z,11.48
2022-09-11T22:53:17.932Z,11.57
2022-09-11T22:55:46.361Z,11.38
2022-09-11T22:58:14.457Z,11.55
2022-09-11T23:00:43.183Z,11.48
2022-09-11T23:03:10.984Z,11.85
2022-09-11T23:05:56.435Z,12.13
2022-09-11T23:08:29.289Z,11.35
2022-09-11T23:11:00.055Z,11.88
2022-09-11T23:13:27.740Z,13.73
2022-09-11T23:15:57.326Z,12.60
2022-09-11T23:18:25.818Z,12.20
2022-09-11T23:20:54.215Z,12.10
2022-09-11T23:23:22.275Z,11.85
2022-09-11T23:25:51.625Z,12.27
2022-09-11T23:28:19.634Z,13.00
2022-09-11T23:30:47.311Z,12.00
2022-09-11T23:33:14.990Z,12.88
2022-09-11T23:35:42.582Z,13.65
2022-09-11T23:38:10.269Z,13.13
2022-09-11T23:40:37.901Z,13.80
2022-09-11T23:43:06.920Z,13.52
2022-09-11T23:45:34.581Z,14.17
2022-09-11T23:48:02.682Z,15.40
2022-09-11T23:50:30.422Z,15.35
2022-09-11T23:52:58.064Z,16.55
2022-09-11T23:55:25.713Z,15.82
2022-09-11T23:57:55.363Z,16.67
